Current Weather

John F Kennedy Intl

New York, New York (KJFK)

Report from: Friday, June 21, 2024 5:51 PM EDT
Current time: Friday, June 21, 2024 6:50 PM EDT

Nearby weather – Weather history – Daily summaries
Weather forecast

Temperature26.7°C (80.1°F)
Heat index28.2°C (82.7°F)
Dew point19.4°C (66.9°F)
Winds 19 kts (9.8 m/s, 21.9 mph) South (190°)
Peak wind 27 kts (13.9 m/s, 31.1 mph) South (190°) at 17:03
Visibility10 mi. (16.1 km)
Clouds Few clouds 6,000 ft. (1,829 m)
Few clouds 15,000 ft. (4,572 m)
Ceiling: Broken clouds 25,000 ft. (7,620 m)
Altimeter30.07 in.Hg (1018 mB)
Relative humidity64 %
Density altitude1,493 ft. (455 m)
Sea-level pressure101.8 kPa (1018 mB, 30.06 in.Hg)
Remarks System requires maintenance
Automated weather observing station with precipitation discriminator
Cumulonimbus clouds observed distant north
Flight conditions Visual Meteorological Conditions
Raw dataKJFK 212151Z 19019KT 10SM FEW060 FEW150 BKN250 27/19 A3007 RMK AO2 PK WND 19027/2103 SLP181 CB DSNT N T02670194 $
An error has occurred. This application may no longer respond until reloaded. Reload 🗙